Time;durP1;ratioP1;P1;durP2;ratioP2;P2;SDS_P1;SDS_P2;PMS_P1;PMS_P2;Temp;Humidity;BMP_temperature;BMP_pressure;BME280_temperature;BME280_humidity;BME280_pressure;Samples;Min_cycle;Max_cycle;Signal;HPM_P1;HPM_P2
2023/04/17 04:30:29;;;;;;;;;10.75;10.75;;;;;13.05;50.69;102066.13;5116579;27;46039;-75
2023/04/17 04:32:55;;;;;;;;;12.50;10.25;;;;;13.09;50.79;102065.09;5102747;27;45440;-74
2023/04/17 04:35:24;;;;;;;;;12.25;10.00;;;;;13.08;51.00;102071.41;5095971;27;45235;-76
2023/04/17 04:37:50;;;;;;;;;14.00;12.50;;;;;13.10;50.73;102072.25;5096039;27;45404;-75
2023/04/17 04:40:15;;;;;;;;;14.50;14.50;;;;;13.09;51.03;102071.34;5095979;27;45391;-76
2023/04/17 04:42:41;;;;;;;;;11.50;10.50;;;;;13.15;50.82;102071.16;5099995;27;45284;-75
2023/04/17 04:45:07;;;;;;;;;15.25;13.75;;;;;13.17;51.27;102072.00;5097793;27;45504;-76
2023/04/17 04:47:33;;;;;;;;;11.50;11.50;;;;;13.15;50.87;102073.84;5088789;27;47078;-72
2023/04/17 04:49:59;;;;;;;;;16.00;13.75;;;;;13.16;51.47;102077.44;5094485;27;45528;-76
2023/04/17 04:52:25;;;;;;;;;14.25;14.00;;;;;13.16;51.40;102080.13;5107839;27;45455;-73
2023/04/17 04:54:50;;;;;;;;;15.25;14.50;;;;;13.18;51.32;102078.25;5116612;27;45434;-76
2023/04/17 04:57:16;;;;;;;;;16.00;15.25;;;;;13.10;51.67;102074.94;5116338;27;46162;-74
2023/04/17 04:59:41;;;;;;;;;17.00;16.00;;;;;13.13;52.17;102072.09;5116437;27;45478;-75
2023/04/17 05:02:07;;;;;;;;;17.00;17.00;;;;;13.15;52.45;102073.84;5115812;27;50193;-75
2023/04/17 05:04:32;;;;;;;;;21.00;19.25;;;;;13.14;52.23;102073.91;5116147;27;45321;-74
2023/04/17 05:06:58;;;;;;;;;17.25;17.25;;;;;13.09;52.34;102076.75;5116106;27;45354;-74
2023/04/17 05:09:23;;;;;;;;;15.00;15.00;;;;;13.03;52.15;102067.97;5098239;27;45263;-76
2023/04/17 05:11:49;;;;;;;;;16.50;16.25;;;;;13.07;52.35;102070.53;5095836;27;45571;-75
2023/04/17 05:14:14;;;;;;;;;19.25;16.25;;;;;12.85;52.96;102040.75;5095453;27;45582;-75
2023/04/17 05:16:40;;;;;;;;;21.00;21.00;;;;;12.97;52.52;102070.88;5087860;27;48289;-75
2023/04/17 05:19:05;;;;;;;;;16.75;15.00;;;;;13.00;52.79;102077.06;5097885;27;45409;-75
2023/04/17 05:21:31;;;;;;;;;22.25;19.25;;;;;12.97;53.21;102077.16;5095664;27;45312;-74
2023/04/17 05:23:56;;;;;;;;;20.25;20.25;;;;;12.95;53.02;102076.31;5095354;27;45301;-74
2023/04/17 05:26:23;;;;;;;;;24.50;19.25;;;;;12.92;53.19;102079.13;5095612;27;45851;-76
2023/04/17 05:28:48;;;;;;;;;20.25;17.50;;;;;12.93;53.27;102083.56;5095547;27;45352;-77
2023/04/17 05:31:14;;;;;;;;;17.50;15.75;;;;;12.89;53.65;102087.31;5095550;27;45306;-76
2023/04/17 05:33:39;;;;;;;;;25.25;22.75;;;;;12.89;53.25;102096.25;5094942;27;45476;-75
2023/04/17 05:36:06;;;;;;;;;23.50;21.25;;;;;12.84;53.47;102086.59;5094885;27;52565;-76
2023/04/17 05:38:31;;;;;;;;;22.00;19.75;;;;;12.82;53.48;102088.44;5095230;27;45359;-75
2023/04/17 05:40:57;;;;;;;;;20.25;19.25;;;;;12.78;53.93;102090.34;5095564;27;45501;-76
2023/04/17 05:43:25;;;;;;;;;18.50;18.50;;;;;12.76;53.68;102072.53;5077783;27;45541;-77
2023/04/17 05:45:51;;;;;;;;;23.50;19.25;;;;;12.79;53.86;102084.03;5106747;27;46093;-76
2023/04/17 05:48:16;;;;;;;;;22.75;20.00;;;;;12.70;53.51;102062.81;5110827;27;45478;-76
2023/04/17 05:50:41;;;;;;;;;26.00;20.50;;;;;12.80;53.96;102088.50;5095390;27;45475;-76
2023/04/17 05:53:07;;;;;;;;;21.00;18.00;;;;;12.80;53.92;102090.31;5095474;27;45416;-78
2023/04/17 05:55:32;;;;;;;;;24.00;23.50;;;;;12.81;54.10;102087.56;5095567;27;46628;-77
2023/04/17 05:57:58;;;;;;;;;24.00;20.25;;;;;12.72;54.47;102071.72;5095434;27;45358;-74
2023/04/17 06:00:23;;;;;;;;;18.50;18.50;;;;;12.86;54.08;102085.59;5095063;27;45427;-76
2023/04/17 06:02:49;;;;;;;;;20.75;20.50;;;;;12.78;54.39;102065.25;5076375;27;45776;-76
2023/04/17 06:05:16;;;;;;;;;21.50;21.50;;;;;12.89;54.05;102084.63;5087112;27;46094;-77
2023/04/17 06:07:42;;;;;;;;;23.25;20.50;;;;;12.96;54.76;102094.22;5100697;27;45512;-73
2023/04/17 06:10:09;;;;;;;;;24.75;24.75;;;;;12.93;54.40;102074.63;5086911;27;45327;-76
2023/04/17 06:12:35;;;;;;;;;21.75;20.25;;;;;12.97;54.51;102071.78;5112677;27;45584;-75
2023/04/17 06:15:00;;;;;;;;;21.00;21.00;;;;;13.06;54.18;102084.91;5096138;27;45363;-74
2023/04/17 06:17:26;;;;;;;;;23.25;20.50;;;;;13.16;54.31;102091.78;5115027;27;45349;-74
2023/04/17 06:19:51;;;;;;;;;23.25;23.25;;;;;13.24;54.18;102088.81;5086396;27;45306;-75
2023/04/17 06:22:16;;;;;;;;;22.25;22.00;;;;;13.17;54.06;102065.72;5107111;27;50190;-73
2023/04/17 06:24:41;;;;;;;;;19.75;19.75;;;;;13.23;53.68;102079.84;5102757;27;45338;-76
2023/04/17 06:27:07;;;;;;;;;21.00;20.00;;;;;13.29;53.90;102080.56;5094006;27;45269;-75
2023/04/17 06:29:32;;;;;;;;;26.75;23.50;;;;;13.39;53.93;102098.16;5094770;27;45322;-74
2023/04/17 06:31:58;;;;;;;;;27.50;26.25;;;;;13.39;54.15;102098.16;5093628;27;45539;-75
2023/04/17 06:34:23;;;;;;;;;25.75;22.00;;;;;13.30;53.75;102088.59;5094115;27;45348;-75
2023/04/17 06:36:48;;;;;;;;;25.50;22.25;;;;;13.35;53.74;102096.50;5093876;27;45482;-75
2023/04/17 06:39:14;;;;;;;;;24.75;22.25;;;;;13.39;54.08;102103.53;5094241;27;45386;-74
2023/04/17 06:41:39;;;;;;;;;21.00;18.50;;;;;13.35;54.62;102100.09;5093966;27;46786;-77
2023/04/17 06:44:05;;;;;;;;;24.25;22.50;;;;;13.34;54.64;102095.63;5095884;27;45455;-76
2023/04/17 06:46:30;;;;;;;;;26.00;23.75;;;;;13.35;54.59;102107.28;5094317;27;45314;-73
2023/04/17 06:48:58;;;;;;;;;27.00;27.00;;;;;13.31;54.74;102108.31;5097675;27;45564;-77
2023/04/17 06:51:26;;;;;;;;;27.25;24.50;;;;;13.18;55.13;102099.81;5093696;27;45600;-77
2023/04/17 06:53:51;;;;;;;;;28.75;26.25;;;;;13.22;55.06;102112.22;5093360;27;46145;-77
2023/04/17 06:56:17;;;;;;;;;30.75;28.50;;;;;13.10;55.24;102100.00;5078648;27;53865;-76
2023/04/17 06:58:44;;;;;;;;;32.75;28.75;;;;;13.19;55.59;102113.19;5097588;27;45377;-76
2023/04/17 07:01:11;;;;;;;;;26.25;23.25;;;;;13.20;55.96;102122.16;5097335;27;45419;-77
2023/04/17 07:03:40;;;;;;;;;29.50;29.50;;;;;13.18;55.68;102124.88;5096950;27;46273;-79
2023/04/17 07:06:06;;;;;;;;;28.25;28.00;;;;;13.14;56.31;102123.25;5097357;27;45414;-77
2023/04/17 07:08:31;;;;;;;;;27.50;24.00;;;;;13.07;56.14;102118.09;5118240;27;45351;-76
2023/04/17 07:10:57;;;;;;;;;29.50;27.75;;;;;13.03;55.87;102117.31;5117556;27;45498;-77
2023/04/17 07:13:22;;;;;;;;;30.75;28.00;;;;;13.08;56.38;102131.53;5117846;27;46243;-78
2023/04/17 07:15:53;;;;;;;;;36.25;32.00;;;;;13.12;56.70;102130.47;5117453;27;45350;-77
2023/04/17 07:18:18;;;;;;;;;35.00;31.00;;;;;13.00;56.52;102117.44;5117646;27;45798;-77
2023/04/17 07:20:44;;;;;;;;;16.75;16.75;;;;;12.95;56.61;102105.03;5117260;27;45679;-77
2023/04/17 07:23:09;;;;;;;;;34.75;29.50;;;;;13.07;56.82;102118.09;5098624;27;45405;-77
2023/04/17 07:25:35;;;;;;;;;31.00;28.75;;;;;13.00;57.30;102109.38;5117501;27;45289;-77
2023/04/17 07:28:00;;;;;;;;;36.50;33.25;;;;;13.02;56.65;102117.38;5117854;27;45492;-78
2023/04/17 07:30:25;;;;;;;;;30.50;26.75;;;;;13.05;56.90;102125.34;5117272;27;45571;-75
2023/04/17 07:32:51;;;;;;;;;30.75;29.75;;;;;13.08;56.76;102147.69;5087603;27;46245;-77
2023/04/17 07:35:16;;;;;;;;;31.75;31.25;;;;;12.98;57.40;102134.56;5103185;27;45503;-75
2023/04/17 07:37:42;;;;;;;;;35.50;29.00;;;;;13.08;57.22;102155.75;5117793;27;45341;-76
2023/04/17 07:40:09;;;;;;;;;31.75;27.75;;;;;13.08;57.46;102155.75;5117068;27;51840;-75
2023/04/17 07:42:35;;;;;;;;;32.75;30.50;;;;;12.98;56.98;102135.44;5117421;27;46040;-76
2023/04/17 07:45:00;;;;;;;;;36.25;32.00;;;;;13.04;57.04;102143.31;5099135;27;45355;-78
2023/04/17 07:47:26;;;;;;;;;35.00;33.00;;;;;13.06;57.27;102151.34;5097808;27;45256;-76
2023/04/17 07:49:51;;;;;;;;;30.75;28.75;;;;;13.01;57.58;102148.81;5099071;27;45657;-76
2023/04/17 07:52:16;;;;;;;;;33.00;27.50;;;;;13.00;57.57;102147.06;5096725;27;45386;-77
2023/04/17 07:54:42;;;;;;;;;35.00;28.50;;;;;13.06;57.04;102154.03;5096523;27;45416;-76
2023/04/17 07:57:08;;;;;;;;;28.25;26.25;;;;;13.03;57.47;102155.00;5096865;27;45439;-77
2023/04/17 07:59:35;;;;;;;;;35.25;30.75;;;;;12.94;57.24;102141.84;5096558;27;45499;-76
2023/04/17 08:02:01;;;;;;;;;32.75;31.00;;;;;13.00;57.73;102155.13;5096130;27;46265;-74
2023/04/17 08:04:26;;;;;;;;;37.25;33.00;;;;;12.85;57.50;102128.69;5096176;27;45426;-76
2023/04/17 08:06:51;;;;;;;;;29.75;28.50;;;;;12.92;57.90;102140.16;5102922;27;45444;-77
2023/04/17 08:09:17;;;;;;;;;39.25;33.75;;;;;13.02;58.06;102161.31;5116868;27;45513;-75
2023/04/17 08:11:44;;;;;;;;;43.00;34.25;;;;;13.01;58.29;102162.28;5098447;27;47014;-77
2023/04/17 08:14:10;;;;;;;;;33.50;29.25;;;;;12.91;57.93;102139.28;5116788;27;45389;-79
2023/04/17 08:16:36;;;;;;;;;37.00;32.25;;;;;13.07;57.93;102164.75;5117016;27;45268;-76
2023/04/17 08:19:01;;;;;;;;;30.50;25.75;;;;;13.08;58.41;102162.94;5084367;27;45351;-77
2023/04/17 08:21:27;;;;;;;;;32.00;31.50;;;;;13.08;58.07;102149.47;5116475;27;45500;-74
2023/04/17 08:23:52;;;;;;;;;33.50;30.75;;;;;13.17;58.20;102162.66;5083882;27;45383;-76
2023/04/17 08:26:19;;;;;;;;;32.75;29.75;;;;;13.12;57.83;102151.13;5116718;27;46293;-75
2023/04/17 08:28:45;;;;;;;;;36.50;32.50;;;;;13.14;57.49;102152.88;5116258;27;46134;-78
2023/04/17 08:31:10;;;;;;;;;35.25;29.75;;;;;13.16;57.81;102153.72;5115201;27;47902;-76
2023/04/17 08:33:35;;;;;;;;;28.00;28.00;;;;;13.22;58.03;102166.06;5116254;27;45440;-77
2023/04/17 08:36:01;;;;;;;;;31.50;28.25;;;;;13.23;58.23;102152.56;5116501;27;45456;-76
2023/04/17 08:38:28;;;;;;;;;35.00;31.75;;;;;13.34;58.20;102159.41;5092890;27;45436;-77
2023/04/17 08:41:01;;;;;;;;;28.75;24.75;;;;;13.33;58.15;102152.25;5103903;27;46154;-75
2023/04/17 08:43:28;;;;;;;;;32.00;32.00;;;;;13.37;57.98;102156.56;5098015;27;45314;-75
2023/04/17 08:45:54;;;;;;;;;34.25;30.00;;;;;13.33;57.95;102145.03;5088659;27;45573;-76
2023/04/17 08:48:21;;;;;;;;;33.50;31.50;;;;;13.40;57.47;102149.28;5103015;27;45342;-76
2023/04/17 08:50:48;;;;;;;;;38.00;30.50;;;;;13.42;57.32;102141.16;5088295;27;46476;-77
2023/04/17 08:53:13;;;;;;;;;42.00;36.50;;;;;13.38;57.40;102140.38;5098224;27;45420;-77
2023/04/17 08:55:39;;;;;;;;;45.00;34.25;;;;;13.45;57.71;102144.59;5095964;27;45462;-77
2023/04/17 08:58:08;;;;;;;;;37.50;33.25;;;;;13.52;57.71;102153.38;5095576;27;45542;-76
2023/04/17 09:00:41;;;;;;;;;34.25;32.50;;;;;13.39;57.98;102123.28;5085225;27;46866;-76
2023/04/17 09:03:09;;;;;;;;;44.75;36.00;;;;;13.58;57.91;102154.03;5094936;27;45435;-76
2023/04/17 09:05:36;;;;;;;;;33.50;32.25;;;;;13.67;57.08;102151.94;5095652;27;45319;-77
2023/04/17 09:08:24;;;;;;;;;37.75;32.25;;;;;13.73;57.09;102154.38;5111936;27;45230;-78
2023/04/17 09:10:51;;;;;;;;;41.00;37.00;;;;;13.71;56.53;102137.38;5115600;27;46614;-77
2023/04/17 09:13:19;;;;;;;;;35.75;32.75;;;;;13.70;56.69;102139.19;5115948;27;45333;-76
2023/04/17 09:15:46;;;;;;;;;45.25;38.00;;;;;13.81;57.01;102155.88;5115891;27;45305;-77
2023/04/17 09:18:27;;;;;;;;;43.75;37.25;;;;;13.69;57.05;102133.88;5114812;27;45551;-77
2023/04/17 09:20:53;;;;;;;;;45.75;36.25;;;;;13.85;56.95;102151.25;5100787;27;45393;-78
2023/04/17 09:23:19;;;;;;;;;39.50;35.25;;;;;13.89;56.55;102153.75;5077206;27;45306;-77
2023/04/17 09:25:45;;;;;;;;;37.75;33.75;;;;;13.84;56.24;102134.19;5100525;27;45544;-78
2023/04/17 09:28:12;;;;;;;;;45.75;39.25;;;;;13.95;56.15;102149.97;5102931;27;45583;-79
2023/04/17 09:30:39;;;;;;;;;47.75;34.75;;;;;13.96;56.11;102138.22;5095001;27;47213;-79
2023/04/17 09:33:07;;;;;;;;;40.75;34.75;;;;;13.89;55.98;102137.59;5089547;27;45248;-77
2023/04/17 09:35:33;;;;;;;;;39.00;36.00;;;;;13.97;55.89;102153.47;5093672;27;45452;-76
2023/04/17 09:37:59;;;;;;;;;40.00;36.25;;;;;13.96;55.50;102149.91;5096451;27;45385;-77
2023/04/17 09:40:34;;;;;;;;;44.75;38.75;;;;;13.93;55.65;102141.94;5101393;27;46120;-76
2023/04/17 09:43:02;;;;;;;;;47.00;38.50;;;;;13.98;55.78;102156.13;5102513;27;45321;-78
2023/04/17 09:45:38;;;;;;;;;43.00;37.75;;;;;13.97;56.14;102154.34;5107301;27;45325;-78
2023/04/17 09:48:11;;;;;;;;;40.25;34.75;;;;;14.02;55.48;102154.19;5100640;27;45841;-76
2023/04/17 09:50:37;;;;;;;;;44.00;33.25;;;;;13.96;55.92;102139.13;5094403;27;45385;-78
2023/04/17 09:53:04;;;;;;;;;48.00;36.25;;;;;14.00;55.66;102145.28;5094432;27;45176;-77
2023/04/17 09:55:30;;;;;;;;;40.75;36.00;;;;;13.85;55.75;102118.91;5095104;27;45506;-79
2023/04/17 09:57:58;;;;;;;;;44.75;37.75;;;;;13.87;55.99;102119.69;5094410;27;45532;-77
2023/04/17 10:00:28;;;;;;;;;41.75;36.25;;;;;13.99;55.87;102143.53;5094893;27;46065;-78
2023/04/17 10:02:55;;;;;;;;;38.50;33.25;;;;;14.00;55.71;102142.59;5094475;27;45234;-77
2023/04/17 10:05:24;;;;;;;;;42.00;36.00;;;;;13.97;55.92;102143.56;5094774;27;45422;-76
2023/04/17 10:07:50;;;;;;;;;33.75;33.50;;;;;13.96;55.98;102147.19;5099899;27;45473;-76
2023/04/17 10:10:23;;;;;;;;;46.75;35.75;;;;;13.91;56.32;102140.22;5115261;27;45475;-78
2023/04/17 10:12:51;;;;;;;;;39.75;34.75;;;;;13.87;56.42;102141.28;5114999;27;45511;-77
2023/04/17 10:15:18;;;;;;;;;38.50;34.25;;;;;13.80;56.89;102134.34;5115585;27;45346;-77
2023/04/17 10:17:45;;;;;;;;;41.00;35.25;;;;;13.97;56.34;102161.56;5114234;27;45435;-77
2023/04/17 10:20:16;;;;;;;;;44.50;34.00;;;;;13.95;56.16;102158.91;5114756;27;45507;-76
2023/04/17 10:22:53;;;;;;;;;39.75;34.00;;;;;13.96;56.61;102151.72;5089772;27;45378;-77
2023/04/17 10:25:20;;;;;;;;;46.00;37.25;;;;;14.00;56.53;102156.06;5091640;27;45460;-76
2023/04/17 10:27:48;;;;;;;;;42.25;35.50;;;;;14.00;56.25;102151.56;5114892;27;45429;-77
2023/04/17 10:30:13;;;;;;;;;42.00;36.00;;;;;14.01;56.21;102150.63;5089777;27;47076;-76
2023/04/17 10:32:44;;;;;;;;;47.00;35.75;;;;;13.97;56.19;102150.78;5118335;27;45456;-75
2023/04/17 10:35:15;;;;;;;;;34.25;28.25;;;;;13.96;56.97;102144.50;5117842;27;45275;-78
2023/04/17 10:37:46;;;;;;;;;37.00;31.75;;;;;13.99;57.14;102141.69;5118893;27;45256;-76
2023/04/17 10:40:20;;;;;;;;;42.00;34.50;;;;;13.90;56.53;102128.56;5118368;27;46132;-77
2023/04/17 10:43:19;;;;;;;;;40.25;35.50;;;;;14.02;56.69;102149.69;5118648;27;45422;-77
2023/04/17 10:45:56;;;;;;;;;37.50;32.00;;;;;14.05;56.64;102143.28;5098230;27;45369;-77
2023/04/17 10:48:25;;;;;;;;;39.25;36.25;;;;;14.05;56.75;102140.56;5101277;27;45469;-75
2023/04/17 10:50:50;;;;;;;;;44.25;36.50;;;;;13.99;56.92;102117.44;5109947;27;46169;-77
2023/04/17 10:53:42;;;;;;;;;40.75;33.00;;;;;14.09;57.06;102133.25;5115973;27;45406;-76
2023/04/17 10:56:16;;;;;;;;;46.75;36.00;;;;;14.12;56.38;102130.47;5118416;27;45274;-77
2023/04/17 10:59:04;;;;;;;;;42.25;35.25;;;;;14.13;56.68;102129.50;5118279;27;45266;-77
2023/04/17 11:01:39;;;;;;;;;42.25;35.25;;;;;14.09;56.34;102125.19;5118004;27;46245;-76
2023/04/17 11:04:05;;;;;;;;;41.75;33.50;;;;;14.06;56.72;102120.78;5097247;27;45383;-78
2023/04/17 11:06:35;;;;;;;;;41.25;36.75;;;;;14.02;56.66;102128.13;5097659;27;45458;-75
2023/04/17 11:09:01;;;;;;;;;43.25;37.50;;;;;14.00;57.02;102124.59;5093571;27;45481;-76
2023/04/17 11:11:26;;;;;;;;;36.50;34.00;;;;;13.93;56.69;102114.97;5118227;27;46206;-76
2023/04/17 11:13:52;;;;;;;;;41.50;33.50;;;;;13.94;57.48;102121.25;5118330;27;45432;-73
2023/04/17 11:16:19;;;;;;;;;36.25;34.25;;;;;13.93;56.83;102128.47;5117964;27;45509;-73
2023/04/17 11:18:45;;;;;;;;;32.50;32.50;;;;;13.94;57.34;102123.94;5117714;27;45411;-75
2023/04/17 11:21:14;;;;;;;;;44.00;34.75;;;;;13.99;56.85;102117.44;5117912;27;45388;-74
2023/04/17 11:23:48;;;;;;;;;37.00;31.50;;;;;14.00;56.74;102113.81;5117741;27;45381;-74
2023/04/17 11:26:14;;;;;;;;;32.75;31.75;;;;;14.09;56.45;102117.97;5118253;27;45275;-74
2023/04/17 11:28:39;;;;;;;;;39.25;31.25;;;;;14.11;56.14;102104.44;5117700;27;45588;-74
2023/04/17 11:31:05;;;;;;;;;40.00;34.25;;;;;14.02;56.06;102082.28;5117469;27;46067;-75
2023/04/17 11:33:37;;;;;;;;;33.75;30.25;;;;;14.24;56.28;102106.56;5096792;27;45965;-73
2023/04/17 11:36:05;;;;;;;;;37.75;33.50;;;;;14.19;55.98;102080.72;5100432;27;45518;-75
2023/04/17 11:38:31;;;;;;;;;36.75;33.00;;;;;14.28;55.97;102088.47;5117048;27;45681;-76
2023/04/17 11:40:59;;;;;;;;;38.25;34.00;;;;;14.38;55.55;102095.22;5116661;27;46103;-75
2023/04/17 11:43:25;;;;;;;;;35.50;33.00;;;;;14.29;55.00;102071.34;5113385;27;45310;-75
2023/04/17 11:45:56;;;;;;;;;42.50;30.75;;;;;14.47;55.32;102100.28;5096937;27;45567;-73
2023/04/17 11:48:23;;;;;;;;;43.75;36.25;;;;;14.45;55.08;102094.09;5105430;27;45483;-76
2023/04/17 11:50:54;;;;;;;;;30.25;29.50;;;;;14.49;54.92;102108.31;5117305;27;45319;-78
2023/04/17 11:53:19;;;;;;;;;41.50;35.75;;;;;14.41;55.74;102102.34;5117914;27;45590;-77
2023/04/17 11:55:45;;;;;;;;;43.00;37.00;;;;;14.38;56.10;102109.63;5098707;27;45355;-73
2023/04/17 11:58:12;;;;;;;;;33.75;30.50;;;;;14.42;56.21;102104.13;5117019;27;45362;-74
2023/04/17 12:00:39;;;;;;;;;40.25;32.25;;;;;14.47;55.65;102108.38;5117381;27;45412;-73
2023/04/17 12:03:32;;;;;;;;;38.75;35.25;;;;;14.49;55.58;102111.03;5113291;27;45488;-73
2023/04/17 12:05:59;;;;;;;;;39.25;33.50;;;;;14.52;55.57;102119.00;5098850;27;45593;-72
2023/04/17 12:08:24;;;;;;;;;38.00;33.50;;;;;14.50;55.81;102113.66;5116746;27;45489;-73
2023/04/17 12:10:50;;;;;;;;;47.25;34.25;;;;;14.54;54.87;102109.03;5097081;27;46244;-73
2023/04/17 12:13:15;;;;;;;;;39.50;35.00;;;;;14.56;55.13;102109.81;5116284;27;45259;-73
2023/04/17 12:15:40;;;;;;;;;39.25;32.50;;;;;14.55;55.22;102111.66;5116700;27;45202;-74
2023/04/17 12:18:07;;;;;;;;;42.00;33.25;;;;;14.52;55.06;102119.88;5116565;27;45553;-76
2023/04/17 12:20:36;;;;;;;;;38.00;33.75;;;;;14.48;55.13;102114.66;5116901;27;45381;-72
2023/04/17 12:23:02;;;;;;;;;39.00;30.50;;;;;14.45;55.30;102118.38;5115620;27;45521;-72
2023/04/17 12:25:29;;;;;;;;;31.75;31.00;;;;;14.44;55.51;102122.00;5116989;27;45387;-72
2023/04/17 12:27:56;;;;;;;;;35.75;32.25;;;;;14.41;55.74;102107.75;5116822;27;45603;-72
2023/04/17 12:30:23;;;;;;;;;37.50;33.75;;;;;14.43;55.82;102119.38;5116547;27;45414;-73
2023/04/17 12:32:48;;;;;;;;;36.75;32.00;;;;;14.41;55.80;102115.84;5097617;27;45406;-73
2023/04/17 12:35:14;;;;;;;;;38.50;33.50;;;;;14.44;56.47;102123.84;5112061;27;45346;-73
2023/04/17 12:37:41;;;;;;;;;35.00;33.00;;;;;14.49;55.71;102111.03;5076823;27;47099;-74
2023/04/17 12:40:07;;;;;;;;;35.25;31.50;;;;;14.44;55.70;102100.44;5095639;27;46296;-73
2023/04/17 12:42:33;;;;;;;;;33.00;26.75;;;;;14.48;55.66;102106.56;5096305;27;45247;-72
2023/04/17 12:44:58;;;;;;;;;29.75;27.25;;;;;14.54;55.76;102111.72;5115161;27;45330;-72
2023/04/17 12:47:23;;;;;;;;;35.50;32.50;;;;;14.60;55.47;102109.66;5115707;27;45218;-72
2023/04/17 12:49:49;;;;;;;;;46.50;35.00;;;;;14.67;54.79;102112.97;5079527;27;46982;-73
2023/04/17 12:52:14;;;;;;;;;38.50;32.00;;;;;14.62;54.48;102101.50;5094696;27;45470;-72
2023/04/17 12:54:39;;;;;;;;;35.00;28.75;;;;;14.65;54.94;102102.22;5107485;27;45436;-75
2023/04/17 12:57:06;;;;;;;;;37.25;30.25;;;;;14.68;54.78;102106.63;5116339;27;45266;-75
2023/04/17 12:59:31;;;;;;;;;30.50;30.50;;;;;14.58;54.88;102089.94;5115991;27;46323;-73
2023/04/17 13:01:57;;;;;;;;;31.75;31.00;;;;;14.69;54.68;102100.31;5116380;27;45341;-72
2023/04/17 13:04:22;;;;;;;;;34.25;32.00;;;;;14.65;54.67;102096.84;5110816;27;45519;-74
2023/04/17 13:06:47;;;;;;;;;34.75;31.00;;;;;14.57;54.92;102080.09;5094973;27;52824;-72
2023/04/17 13:09:13;;;;;;;;;26.00;24.50;;;;;14.69;54.67;102092.19;5112926;27;45521;-73
2023/04/17 13:11:38;;;;;;;;;37.50;32.25;;;;;14.76;54.88;102105.38;5116143;27;45351;-72
2023/04/17 13:14:04;;;;;;;;;33.25;30.00;;;;;14.84;54.29;102104.19;5116236;27;45509;-73
2023/04/17 13:16:29;;;;;;;;;36.50;33.00;;;;;14.86;54.30;102096.91;5116352;27;45315;-73
2023/04/17 13:18:54;;;;;;;;;32.25;31.25;;;;;14.88;54.55;102100.41;5115855;27;46047;-73
2023/04/17 13:21:20;;;;;;;;;32.75;30.50;;;;;14.89;54.45;102100.31;5115619;27;50321;-73
2023/04/17 13:23:45;;;;;;;;;40.00;32.75;;;;;14.91;53.99;102089.47;5116349;27;45550;-75
2023/04/17 13:26:10;;;;;;;;;40.75;34.00;;;;;14.93;53.91;102093.00;5116867;27;53282;-73
2023/04/17 13:28:36;;;;;;;;;29.50;28.25;;;;;14.91;54.28;102094.88;5116558;27;46120;-74
2023/04/17 13:31:01;;;;;;;;;34.25;31.25;;;;;14.89;54.27;102091.34;5117028;27;45331;-72
2023/04/17 13:33:26;;;;;;;;;28.00;27.50;;;;;14.82;54.10;102089.84;5116932;27;47264;-72
2023/04/17 13:35:52;;;;;;;;;39.75;34.50;;;;;14.76;54.22;102078.38;5116164;27;45444;-72
2023/04/17 13:38:18;;;;;;;;;31.75;30.00;;;;;14.79;54.25;102076.50;5115228;27;46183;-72
2023/04/17 13:40:43;;;;;;;;;35.00;32.25;;;;;14.84;54.43;102088.84;5115655;27;45319;-73
2023/04/17 13:43:08;;;;;;;;;36.50;31.75;;;;;14.85;54.36;102087.91;5114048;27;45605;-73
2023/04/17 13:45:34;;;;;;;;;38.75;33.75;;;;;14.80;54.04;102078.25;5095145;27;45239;-73
2023/04/17 13:48:00;;;;;;;;;30.75;28.25;;;;;14.70;54.32;102059.75;5100513;27;45488;-73
2023/04/17 13:50:25;;;;;;;;;33.50;31.00;;;;;14.77;54.29;102071.16;5116323;27;45388;-73
2023/04/17 13:52:50;;;;;;;;;27.00;27.00;;;;;14.84;54.58;102085.28;5115655;27;45287;-72
2023/04/17 13:55:16;;;;;;;;;38.50;31.75;;;;;14.81;54.05;102085.38;5115858;27;45211;-73
2023/04/17 13:57:41;;;;;;;;;31.00;29.00;;;;;14.75;54.27;102084.72;5115263;27;46110;-73
2023/04/17 14:00:07;;;;;;;;;43.00;34.00;;;;;14.73;54.74;102086.59;5115635;27;45390;-73
2023/04/17 14:02:33;;;;;;;;;29.00;25.75;;;;;14.71;54.56;102079.53;5115415;27;45342;-73
2023/04/17 14:04:58;;;;;;;;;35.00;30.75;;;;;14.68;55.03;102085.03;5118590;27;45576;-73
2023/04/17 14:07:23;;;;;;;;;37.75;31.25;;;;;14.62;54.80;102083.50;5118414;27;53154;-72
2023/04/17 14:09:49;;;;;;;;;35.50;30.00;;;;;14.63;55.08;102076.28;5119028;27;46071;-75
2023/04/17 14:12:19;;;;;;;;;40.00;34.50;;;;;14.62;54.71;102078.09;5119142;27;45506;-74
2023/04/17 14:14:44;;;;;;;;;35.75;31.00;;;;;14.59;54.71;102066.53;5118992;27;45238;-73
2023/04/17 14:17:10;;;;;;;;;37.50;33.00;;;;;14.65;54.88;102082.47;5118593;27;45547;-75
2023/04/17 14:19:35;;;;;;;;;32.50;30.75;;;;;14.55;55.08;102060.38;5119102;27;45228;-73
2023/04/17 14:22:00;;;;;;;;;41.75;35.50;;;;;14.63;54.75;102070.88;5118881;27;45262;-74
2023/04/17 14:24:26;;;;;;;;;38.50;33.50;;;;;14.63;54.79;102073.56;5119132;27;45230;-74
2023/04/17 14:26:51;;;;;;;;;38.00;32.25;;;;;14.52;55.27;102054.25;5118754;27;45415;-73
2023/04/17 14:29:16;;;;;;;;;34.00;30.25;;;;;14.60;55.22;102065.59;5119042;27;45411;-73
2023/04/17 14:31:42;;;;;;;;;32.00;29.75;;;;;14.57;55.20;102063.88;5118235;27;45386;-73
2023/04/17 14:34:07;;;;;;;;;37.50;33.00;;;;;14.54;55.43;102055.94;5118634;27;45574;-73
2023/04/17 14:36:34;;;;;;;;;37.00;33.00;;;;;14.50;55.43;102042.63;5118065;27;51841;-72
2023/04/17 14:38:59;;;;;;;;;39.25;34.00;;;;;14.58;55.44;102051.28;5118852;27;45416;-74
2023/04/17 14:41:28;;;;;;;;;45.50;33.75;;;;;14.59;55.12;102032.31;5103880;27;45369;-73
2023/04/17 14:43:54;;;;;;;;;37.75;33.75;;;;;14.72;55.20;102049.75;5108061;27;45571;-74
2023/04/17 14:46:19;;;;;;;;;35.25;32.25;;;;;14.76;55.68;102045.09;5118424;27;46048;-76
2023/04/17 14:48:45;;;;;;;;;33.25;31.50;;;;;14.85;54.83;102033.91;5110197;27;45452;-76
2023/04/17 14:51:13;;;;;;;;;30.50;25.50;;;;;14.93;54.63;102039.84;5098034;27;45318;-74
2023/04/17 14:53:39;;;;;;;;;38.25;34.00;;;;;15.05;54.04;102033.94;5097872;27;45630;-74
2023/04/17 14:56:05;;;;;;;;;32.50;29.00;;;;;15.18;53.71;102039.66;5097940;27;46109;-73
2023/04/17 14:58:30;;;;;;;;;41.75;33.25;;;;;15.29;53.45;102033.78;5097910;27;45374;-74
2023/04/17 15:00:55;;;;;;;;;35.25;32.00;;;;;15.40;53.49;102021.53;5097948;27;45693;-74
2023/04/17 15:03:21;;;;;;;;;38.75;32.25;;;;;15.46;53.10;102021.25;5099843;27;45799;-75
2023/04/17 15:05:47;;;;;;;;;33.00;28.25;;;;;15.59;53.31;102016.19;5112349;27;45327;-75
2023/04/17 15:08:12;;;;;;;;;35.75;32.75;;;;;15.55;52.63;101995.66;5117955;27;45234;-76
2023/04/17 15:10:39;;;;;;;;;35.00;29.75;;;;;15.53;52.79;101986.72;5118495;27;45412;-74
2023/04/17 15:13:06;;;;;;;;;32.75;29.75;;;;;15.60;52.60;101990.03;5117986;27;45360;-75
2023/04/17 15:15:32;;;;;;;;;31.00;28.25;;;;;15.69;52.64;102003.13;5116646;27;45589;-76
2023/04/17 15:17:57;;;;;;;;;37.50;30.75;;;;;15.69;52.20;101992.31;5118037;27;45349;-74
2023/04/17 15:20:23;;;;;;;;;30.50;26.75;;;;;15.76;52.41;101993.75;5117831;27;46427;-73
2023/04/17 15:22:51;;;;;;;;;33.25;30.75;;;;;15.87;52.52;101988.72;5117750;27;45522;-74
2023/04/17 15:25:18;;;;;;;;;29.25;26.75;;;;;16.08;51.67;102000.31;5098934;27;46284;-74
2023/04/17 15:27:44;;;;;;;;;33.50;28.50;;;;;16.16;51.30;101993.56;5118102;27;45428;-77
2023/04/17 15:30:10;;;;;;;;;32.75;28.00;;;;;16.23;50.84;102002.28;5117977;27;45510;-76
2023/04/17 15:32:35;;;;;;;;;33.25;32.25;;;;;16.13;51.05;101987.47;5098840;27;45250;-76
2023/04/17 15:35:01;;;;;;;;;33.75;30.00;;;;;16.03;51.33;101980.75;5117624;27;45928;-79
2023/04/17 15:37:27;;;;;;;;;35.25;31.75;;;;;15.87;51.56;101962.56;5119552;27;45478;-76